Eureka の空港の天気 - METARとTAF

Eureka ( CWEU / ) - カナダ ヌナブト準州Eureka
飛行場実況気象(Metar)
観測時間05/28 17:27 CDT (05/28 22:27 UTC)
風向・風速南南東 3m/s
視程9650m
天気現象弱い雪
少しの雲 雲底高度 180m
少しの雲 雲底高度 460m
全天の8割程度の雲 雲底高度 910m
全天を覆う雲 雲底高度 1830m
気温-2℃
湿度80%
気圧1012.3hPa
METARCWEU 282227Z 16005KT 6SM -SN FEW006 FEW015 BKN030 OVC060 M02/M05 A2986 RMK ST1SC2SC4SC1 VIS W 10 SLP123
過去の天気等 Google飛行場航空写真 Wunderground天気予報

過去48時間のMETAR

飛行場予報(TAF)
データがありません